Arnold, North Carolina
Current Conditions -  °F | °C
As of 12:35 PM on Wednesday 26 Nov 2014 (Local Time) from KEXX Reporting Station
Overcast Overcast  
Wind Chill:   Ceiling: 4600
Heat Index:   Visibility: 10mi
Dew Point:   Wind: 0mph
Humidity: 91%   Direction: NA
Pressure: 29.99"   Gusts: NA
Location:  35.7974°N, 80.2541°W
Report Text: KEXX 261735Z AUTO 00000KT 10SM SCT011 SCT039 OVC046 06/04 A2999 RMK AO2 T00550041
Loading
Personal Weather Stations






























Interactive Weather Map New forecast layout! Learn more

10-Day Weather Forecast

Advertisements
Track Severe Weather on mobile